Time;durP1;ratioP1;P1;durP2;ratioP2;P2;SDS_P1;SDS_P2;PMS_P1;PMS_P2;Temp;Humidity;BMP_temperature;BMP_pressure;BME280_temperature;BME280_humidity;BME280_pressure;Samples;Min_cycle;Max_cycle;Signal;HPM_P1;HPM_P2
2021/05/13 00:00:41;;;;;;;11.15;4.20;;;9.80;99.90;;;;;;5093596;28;20103;-74
2021/05/13 00:03:07;;;;;;;11.52;4.88;;;9.70;99.90;;;;;;5091573;28;20420;-74
2021/05/13 00:05:33;;;;;;;13.50;4.60;;;9.70;99.90;;;;;;5091530;28;20027;-75
2021/05/13 00:07:58;;;;;;;9.27;4.57;;;9.70;99.90;;;;;;5090387;28;20048;-75
2021/05/13 00:10:26;;;;;;;11.00;4.22;;;9.70;99.90;;;;;;5085981;28;20021;-76
2021/05/13 00:12:56;;;;;;;12.55;5.07;;;9.70;99.90;;;;;;5075350;28;20487;-74
2021/05/13 00:15:24;;;;;;;18.57;5.17;;;9.60;99.90;;;;;;5088218;28;20024;-76
2021/05/13 00:17:51;;;;;;;12.02;4.72;;;9.60;99.90;;;;;;5093295;28;20016;-76
2021/05/13 00:20:20;;;;;;;13.75;4.43;;;9.50;99.90;;;;;;5092279;28;20147;-76
2021/05/13 00:22:46;;;;;;;9.73;4.88;;;9.50;99.90;;;;;;5092265;28;20035;-76
2021/05/13 00:25:12;;;;;;;9.95;4.50;;;9.50;99.90;;;;;;5092042;28;20040;-76
2021/05/13 00:27:38;;;;;;;11.68;5.28;;;9.40;99.90;;;;;;5092912;28;20016;-76
2021/05/13 00:30:05;;;;;;;9.60;4.65;;;9.40;99.90;;;;;;5092306;28;20368;-76
2021/05/13 00:32:31;;;;;;;8.32;4.65;;;9.30;99.90;;;;;;5092461;28;20027;-76
2021/05/13 00:34:57;;;;;;;10.05;4.22;;;9.30;99.90;;;;;;5092680;28;20425;-76
2021/05/13 00:37:22;;;;;;;13.00;4.80;;;9.30;99.90;;;;;;5091639;28;20020;-76
2021/05/13 00:39:49;;;;;;;13.13;4.82;;;9.20;99.90;;;;;;5092861;28;20112;-76
2021/05/13 00:42:15;;;;;;;9.27;4.30;;;9.20;99.90;;;;;;5092616;28;20016;-76
2021/05/13 00:44:46;;;;;;;15.55;4.65;;;9.20;99.90;;;;;;5091921;28;20024;-76
2021/05/13 00:47:14;;;;;;;10.85;5.43;;;9.20;99.90;;;;;;5092721;28;20028;-76
2021/05/13 00:49:40;;;;;;;9.82;5.22;;;9.20;99.90;;;;;;5092463;28;20467;-76
2021/05/13 00:52:08;;;;;;;17.40;6.07;;;9.20;99.90;;;;;;5091536;28;20040;-76
2021/05/13 00:54:41;;;;;;;17.25;6.28;;;9.20;99.90;;;;;;5091870;28;20464;-76
2021/05/13 00:57:06;;;;;;;14.20;6.00;;;9.20;99.90;;;;;;5092623;28;20123;-76
2021/05/13 00:59:35;;;;;;;15.98;6.07;;;9.10;99.90;;;;;;5089245;28;20230;-76
2021/05/13 01:02:00;;;;;;;13.32;6.10;;;9.10;99.90;;;;;;5083397;28;20077;-76
2021/05/13 01:04:26;;;;;;;12.63;6.40;;;9.20;99.90;;;;;;5092660;28;20024;-76
2021/05/13 01:06:52;;;;;;;9.48;5.45;;;9.10;99.90;;;;;;5092672;28;20522;-75
2021/05/13 01:09:30;;;;;;;16.90;6.50;;;9.10;99.90;;;;;;5092304;28;20112;-75
2021/05/13 01:12:01;;;;;;;15.05;5.90;;;9.10;99.90;;;;;;5094424;28;20490;-76
2021/05/13 01:14:39;;;;;;;10.95;5.80;;;9.10;99.90;;;;;;5091895;28;20098;-75
2021/05/13 01:19:45;;;;;;;9.02;5.60;;;9.00;99.90;;;;;;5093033;28;20101;-75
2021/05/13 01:22:11;;;;;;;8.77;6.05;;;8.90;99.90;;;;;;5088165;28;20040;-75
2021/05/13 01:24:37;;;;;;;13.48;6.38;;;8.90;99.90;;;;;;5091909;28;20020;-75
2021/05/13 01:27:03;;;;;;;15.50;7.43;;;8.90;99.90;;;;;;5091437;28;20426;-75
2021/05/13 01:29:29;;;;;;;13.70;6.85;;;8.90;99.90;;;;;;5091957;28;20020;-75
2021/05/13 01:31:55;;;;;;;13.77;6.60;;;8.90;99.90;;;;;;5092650;28;20016;-74
2021/05/13 01:34:21;;;;;;;13.77;8.20;;;8.80;99.90;;;;;;5091335;28;20020;-74
2021/05/13 01:36:47;;;;;;;15.85;7.70;;;8.80;99.90;;;;;;5092491;28;20020;-75
2021/05/13 01:39:13;;;;;;;12.93;6.43;;;8.80;99.90;;;;;;5092020;28;20032;-75
2021/05/13 01:41:41;;;;;;;13.50;8.00;;;8.70;99.90;;;;;;5091528;28;20024;-75
2021/05/13 01:44:08;;;;;;;10.88;7.38;;;8.70;99.90;;;;;;5091820;28;20050;-75
2021/05/13 01:46:34;;;;;;;18.73;7.75;;;8.70;99.90;;;;;;5090690;28;20460;-75
2021/05/13 01:49:00;;;;;;;11.25;8.15;;;8.70;99.90;;;;;;5091702;28;20028;-75
2021/05/13 01:51:25;;;;;;;11.45;6.47;;;8.70;99.90;;;;;;5091499;28;20039;-74
2021/05/13 01:53:51;;;;;;;10.45;6.95;;;8.60;99.90;;;;;;5091259;28;20035;-75
2021/05/13 01:56:17;;;;;;;12.77;7.00;;;8.60;99.90;;;;;;5089014;28;20016;-76
2021/05/13 01:58:44;;;;;;;12.23;7.07;;;8.50;99.90;;;;;;5080879;28;20126;-76
2021/05/13 02:01:12;;;;;;;11.95;7.13;;;8.50;99.90;;;;;;5091181;28;20042;-75
2021/05/13 02:03:38;;;;;;;14.57;7.95;;;8.50;99.90;;;;;;5091803;28;20035;-76
2021/05/13 02:06:04;;;;;;;16.90;8.00;;;8.40;99.90;;;;;;5095787;28;20107;-76
2021/05/13 02:08:30;;;;;;;22.17;8.70;;;8.40;99.90;;;;;;5074344;28;20017;-76
2021/05/13 02:10:56;;;;;;;16.60;8.70;;;8.40;99.90;;;;;;5075373;28;20025;-76
2021/05/13 02:13:22;;;;;;;13.27;8.40;;;8.40;99.90;;;;;;5074381;28;20116;-76
2021/05/13 02:15:47;;;;;;;13.40;8.25;;;8.40;99.90;;;;;;5074368;28;20356;-76
2021/05/13 02:18:13;;;;;;;13.98;9.02;;;8.40;99.90;;;;;;5074855;28;20035;-76
2021/05/13 02:20:41;;;;;;;15.13;9.55;;;8.40;99.90;;;;;;5074952;28;20044;-76
2021/05/13 02:23:07;;;;;;;21.95;9.57;;;8.40;99.90;;;;;;5074112;28;20066;-76
2021/05/13 02:25:33;;;;;;;13.05;9.15;;;8.30;99.90;;;;;;5074448;28;20036;-74
2021/05/13 02:28:00;;;;;;;14.02;9.40;;;8.40;99.90;;;;;;5074628;28;20040;-75
2021/05/13 02:30:25;;;;;;;16.23;9.70;;;8.30;99.90;;;;;;5074054;28;20028;-75
2021/05/13 02:32:53;;;;;;;17.90;10.43;;;8.30;99.90;;;;;;5075005;28;20032;-75
2021/05/13 02:35:19;;;;;;;16.42;9.85;;;8.30;99.90;;;;;;5074521;28;20048;-75
2021/05/13 02:37:45;;;;;;;14.80;11.02;;;8.30;99.90;;;;;;5073946;28;20021;-75
2021/05/13 02:40:13;;;;;;;16.98;11.02;;;8.30;99.90;;;;;;5074722;28;20114;-75
2021/05/13 02:42:40;;;;;;;18.05;10.50;;;8.30;99.90;;;;;;5076656;28;20052;-74
2021/05/13 02:45:07;;;;;;;14.48;10.20;;;8.30;99.90;;;;;;5074532;28;20035;-75
2021/05/13 02:47:33;;;;;;;12.45;10.38;;;8.20;99.90;;;;;;5074190;28;20032;-75
2021/05/13 02:49:58;;;;;;;13.02;10.23;;;8.20;99.90;;;;;;5073868;28;20040;-75
2021/05/13 02:52:24;;;;;;;17.15;10.95;;;8.20;99.90;;;;;;5073976;28;20046;-75
2021/05/13 02:54:49;;;;;;;18.88;12.20;;;8.50;99.90;;;;;;5074315;28;20024;-76
2021/05/13 02:57:15;;;;;;;16.13;11.48;;;8.20;99.90;;;;;;5073185;28;20032;-76
2021/05/13 02:59:45;;;;;;;18.40;11.98;;;8.20;99.90;;;;;;5074520;28;20071;-76
2021/05/13 03:02:11;;;;;;;16.60;11.32;;;8.20;99.90;;;;;;5074658;28;20120;-75
2021/05/13 03:04:37;;;;;;;14.18;11.77;;;8.20;99.90;;;;;;5073431;28;20024;-75
2021/05/13 03:07:03;;;;;;;17.58;11.43;;;8.20;99.90;;;;;;5074646;28;20033;-75
2021/05/13 03:09:29;;;;;;;20.38;12.82;;;8.20;99.90;;;;;;5074052;28;20107;-75
2021/05/13 03:11:55;;;;;;;26.35;13.60;;;8.20;99.90;;;;;;5074303;28;20080;-75
2021/05/13 03:14:20;;;;;;;20.48;12.38;;;8.20;99.90;;;;;;5076425;28;20021;-75
2021/05/13 03:16:46;;;;;;;24.45;14.10;;;8.20;99.90;;;;;;5077581;28;20056;-75
2021/05/13 03:19:17;;;;;;;16.33;12.68;;;8.20;99.90;;;;;;5073267;28;20567;-75
2021/05/13 03:21:45;;;;;;;18.27;12.88;;;8.20;99.90;;;;;;5078316;28;20069;-75
2021/05/13 03:29:14;;;;;;;21.92;13.43;;;8.20;99.90;;;;;;5073686;28;20108;-75
2021/05/13 03:31:40;;;;;;;18.38;12.35;;;8.20;99.90;;;;;;5074166;28;20467;-75
2021/05/13 03:34:06;;;;;;;20.02;12.88;;;8.10;99.90;;;;;;5072817;28;20033;-75
2021/05/13 03:36:34;;;;;;;18.63;13.90;;;8.10;99.90;;;;;;5073039;28;20029;-75
2021/05/13 03:39:02;;;;;;;21.05;14.82;;;8.10;99.90;;;;;;5072745;28;20496;-75
2021/05/13 03:41:28;;;;;;;21.27;15.75;;;8.10;99.90;;;;;;5073144;28;20024;-76
2021/05/13 03:43:53;;;;;;;21.38;13.93;;;8.00;99.90;;;;;;5073425;28;20021;-75
2021/05/13 03:46:19;;;;;;;21.15;15.07;;;8.10;99.90;;;;;;5072099;28;20024;-75
2021/05/13 03:48:45;;;;;;;23.02;13.82;;;8.00;99.90;;;;;;5073284;28;20392;-76
2021/05/13 03:51:10;;;;;;;24.15;16.95;;;8.00;99.90;;;;;;5073007;28;20021;-75
2021/05/13 03:53:36;;;;;;;18.95;13.82;;;8.00;99.90;;;;;;5072197;28;20070;-74
2021/05/13 03:56:02;;;;;;;21.02;13.60;;;8.00;99.90;;;;;;5073206;28;20031;-74
2021/05/13 03:58:32;;;;;;;21.85;13.52;;;8.00;99.90;;;;;;5073023;28;20043;-75
2021/05/13 04:03:23;;;;;;;24.45;15.00;;;8.00;99.90;;;;;;5072813;28;20367;-75
2021/05/13 04:05:49;;;;;;;17.50;13.40;;;8.10;99.90;;;;;;5073118;28;20012;-74
2021/05/13 04:08:15;;;;;;;16.33;14.18;;;8.10;99.90;;;;;;5072398;28;20394;-74
2021/05/13 04:10:41;;;;;;;17.27;14.02;;;8.10;99.90;;;;;;5073081;28;20020;-74
2021/05/13 04:13:10;;;;;;;15.00;13.40;;;8.10;99.90;;;;;;5073035;28;20024;-76
2021/05/13 04:15:36;;;;;;;18.75;14.48;;;8.10;99.90;;;;;;5071891;28;20028;-75
2021/05/13 04:18:02;;;;;;;16.02;13.93;;;8.10;99.90;;;;;;5072913;28;20384;-75
2021/05/13 04:20:28;;;;;;;15.30;13.70;;;8.10;99.90;;;;;;5072068;28;20044;-75
2021/05/13 04:22:54;;;;;;;17.10;12.75;;;8.10;99.90;;;;;;5086130;28;20461;-75
2021/05/13 04:25:20;;;;;;;19.77;13.55;;;8.20;99.90;;;;;;5072237;28;20064;-75
2021/05/13 04:27:47;;;;;;;15.50;11.95;;;8.20;99.90;;;;;;5072225;28;20028;-75
2021/05/13 04:30:13;;;;;;;15.05;11.98;;;8.20;99.90;;;;;;5071763;28;20055;-75
2021/05/13 04:32:39;;;;;;;16.63;12.25;;;8.20;99.90;;;;;;5072299;28;20310;-75
2021/05/13 04:35:05;;;;;;;13.13;11.88;;;8.20;99.90;;;;;;5072571;28;20074;-75
2021/05/13 04:37:31;;;;;;;13.20;11.95;;;8.30;99.90;;;;;;5071605;28;20025;-75
2021/05/13 04:39:56;;;;;;;13.63;11.52;;;8.40;99.90;;;;;;5072234;28;20433;-74
2021/05/13 04:42:22;;;;;;;13.80;12.32;;;8.40;99.90;;;;;;5071158;28;20039;-76
2021/05/13 04:44:47;;;;;;;13.02;11.40;;;8.40;99.90;;;;;;5072232;28;20039;-76
2021/05/13 04:47:30;;;;;;;15.68;11.57;;;8.50;99.90;;;;;;5072167;28;20024;-76
2021/05/13 04:49:56;;;;;;;13.38;12.07;;;8.50;99.90;;;;;;5071861;28;20150;-76
2021/05/13 04:52:24;;;;;;;14.75;11.68;;;8.60;99.90;;;;;;5072248;28;20043;-76
2021/05/13 04:54:55;;;;;;;19.65;13.80;;;8.70;99.90;;;;;;5072153;28;20502;-76
2021/05/13 04:57:22;;;;;;;20.63;13.23;;;8.70;99.90;;;;;;5071200;28;20071;-76
2021/05/13 04:59:48;;;;;;;14.25;11.90;;;8.80;99.90;;;;;;5071877;28;20037;-76
2021/05/13 05:02:14;;;;;;;13.43;12.05;;;8.90;99.90;;;;;;5072097;28;20020;-76
2021/05/13 05:04:39;;;;;;;12.50;11.20;;;9.00;99.90;;;;;;5071364;28;20111;-76
2021/05/13 05:07:05;;;;;;;18.40;12.40;;;9.00;99.90;;;;;;5072255;28;20086;-76
2021/05/13 05:09:31;;;;;;;14.35;11.13;;;9.10;99.90;;;;;;5072150;28;20028;-76
2021/05/13 05:11:57;;;;;;;11.38;9.75;;;9.10;99.90;;;;;;5071353;28;20074;-76
2021/05/13 05:14:22;;;;;;;11.43;10.20;;;9.10;99.90;;;;;;5071743;28;20029;-76
2021/05/13 05:16:48;;;;;;;14.02;10.75;;;9.20;99.90;;;;;;5071601;28;20029;-75
2021/05/13 05:19:13;;;;;;;11.50;10.23;;;9.20;99.90;;;;;;5071175;28;20081;-75
2021/05/13 05:21:39;;;;;;;23.75;10.07;;;9.20;99.90;;;;;;5072291;28;20044;-76
2021/05/13 05:24:05;;;;;;;11.93;10.07;;;9.20;99.90;;;;;;5073424;28;20546;-76
2021/05/13 05:26:31;;;;;;;15.38;9.90;;;9.20;99.90;;;;;;5073582;28;20017;-76
2021/05/13 05:28:56;;;;;;;15.00;9.95;;;9.20;99.90;;;;;;5072120;28;20074;-76
2021/05/13 05:31:22;;;;;;;12.55;9.60;;;9.20;99.90;;;;;;5071391;28;20023;-76
2021/05/13 05:33:47;;;;;;;11.43;10.32;;;9.30;99.90;;;;;;5071517;28;20028;-76
2021/05/13 05:36:13;;;;;;;13.57;9.77;;;9.30;99.90;;;;;;5071819;28;20024;-76
2021/05/13 05:38:39;;;;;;;14.55;10.25;;;9.40;99.90;;;;;;5071364;28;20044;-76
2021/05/13 05:41:04;;;;;;;13.75;10.32;;;9.50;99.90;;;;;;5058210;28;20040;-76
2021/05/13 05:43:30;;;;;;;13.32;9.43;;;9.50;99.90;;;;;;5075197;28;20082;-76
2021/05/13 05:45:56;;;;;;;11.07;9.52;;;9.50;99.90;;;;;;5075006;28;20040;-76
2021/05/13 05:48:21;;;;;;;13.13;9.95;;;9.50;99.90;;;;;;5075691;28;20099;-75
2021/05/13 05:50:47;;;;;;;11.75;9.35;;;9.60;99.90;;;;;;5075617;28;20105;-75
2021/05/13 05:53:13;;;;;;;9.35;8.43;;;9.70;99.90;;;;;;5064169;28;20025;-75
2021/05/13 05:55:40;;;;;;;13.93;9.75;;;9.80;99.90;;;;;;5060361;28;20017;-75
2021/05/13 05:58:06;;;;;;;13.18;10.20;;;9.80;99.90;;;;;;5061688;28;20388;-75
2021/05/13 06:00:32;;;;;;;11.82;9.52;;;9.90;99.90;;;;;;5061481;28;20060;-75
2021/05/13 06:02:58;;;;;;;15.70;9.93;;;9.90;99.90;;;;;;5057706;28;20052;-76
2021/05/13 06:05:24;;;;;;;13.93;9.13;;;10.10;99.90;;;;;;5054925;28;20021;-76
2021/05/13 06:07:50;;;;;;;16.52;10.57;;;10.10;99.90;;;;;;5059367;28;20028;-75
2021/05/13 06:10:17;;;;;;;13.05;9.25;;;10.20;99.90;;;;;;5061088;28;20017;-75
2021/05/13 06:12:44;;;;;;;12.10;10.00;;;10.30;99.90;;;;;;5060595;28;20029;-75
2021/05/13 06:15:12;;;;;;;15.57;8.48;;;10.30;99.90;;;;;;5060620;28;20020;-77
2021/05/13 06:17:38;;;;;;;9.27;8.23;;;10.40;99.90;;;;;;5061058;28;20023;-77
2021/05/13 06:20:06;;;;;;;9.98;8.98;;;10.50;99.90;;;;;;5056731;28;20481;-76
2021/05/13 06:22:32;;;;;;;12.77;10.65;;;10.60;99.90;;;;;;5060902;28;20029;-76
2021/05/13 06:24:58;;;;;;;12.15;9.82;;;10.70;99.90;;;;;;5067007;28;20031;-76
2021/05/13 06:27:23;;;;;;;13.73;10.18;;;10.80;99.90;;;;;;5058212;28;20021;-77
2021/05/13 06:29:49;;;;;;;15.20;11.27;;;10.80;99.90;;;;;;5064892;28;20027;-76
2021/05/13 06:32:15;;;;;;;14.32;11.07;;;10.90;99.90;;;;;;5056202;28;20028;-76
2021/05/13 06:34:41;;;;;;;15.63;11.25;;;11.00;99.90;;;;;;5056634;28;20147;-76
2021/05/13 06:37:07;;;;;;;13.18;10.10;;;11.10;99.90;;;;;;5056838;28;20021;-75
2021/05/13 06:39:33;;;;;;;12.07;10.77;;;11.10;99.90;;;;;;5068364;28;20075;-75
2021/05/13 06:42:03;;;;;;;13.63;9.77;;;11.20;99.90;;;;;;5055379;28;20032;-75
2021/05/13 06:44:28;;;;;;;15.65;11.43;;;11.30;99.90;;;;;;5057958;28;20021;-76
2021/05/13 06:46:54;;;;;;;13.07;11.30;;;11.30;99.90;;;;;;5059433;28;20416;-76
2021/05/13 06:49:20;;;;;;;13.77;11.60;;;11.50;99.90;;;;;;5057524;28;20127;-77
2021/05/13 06:51:46;;;;;;;14.43;9.90;;;11.60;99.90;;;;;;5061206;28;20030;-76
2021/05/13 06:54:12;;;;;;;13.75;10.98;;;11.60;99.90;;;;;;5069196;28;20033;-75
2021/05/13 06:56:38;;;;;;;12.55;11.27;;;11.80;99.90;;;;;;5080089;28;20021;-76
2021/05/13 06:59:03;;;;;;;13.90;10.38;;;11.80;99.90;;;;;;5081526;28;20052;-75
2021/05/13 07:01:29;;;;;;;14.55;11.23;;;11.80;99.90;;;;;;5078609;28;20172;-75
2021/05/13 07:03:55;;;;;;;18.95;11.60;;;11.90;99.90;;;;;;5074052;28;20130;-76
2021/05/13 07:06:20;;;;;;;17.58;13.20;;;12.00;99.90;;;;;;5078498;28;20020;-75
2021/05/13 07:08:46;;;;;;;16.73;12.98;;;12.00;99.90;;;;;;5082865;28;20404;-77
2021/05/13 07:11:11;;;;;;;16.17;14.18;;;12.10;99.90;;;;;;5079044;28;20487;-77
2021/05/13 07:13:37;;;;;;;22.60;14.82;;;12.20;99.90;;;;;;5085721;28;20029;-76
2021/05/13 07:16:03;;;;;;;17.48;13.77;;;12.30;99.90;;;;;;5083535;28;20108;-77
2021/05/13 07:18:29;;;;;;;24.77;14.82;;;12.30;99.90;;;;;;5073216;28;20032;-77
2021/05/13 07:20:55;;;;;;;16.00;13.95;;;12.40;99.90;;;;;;5075438;28;20052;-80
2021/05/13 07:23:20;;;;;;;19.50;13.77;;;12.50;99.90;;;;;;5082640;28;20039;-80
2021/05/13 07:25:47;;;;;;;17.05;13.93;;;12.60;99.90;;;;;;5088428;28;20057;-79
2021/05/13 07:28:13;;;;;;;22.77;13.27;;;12.60;99.90;;;;;;5074372;28;20111;-78
2021/05/13 07:30:39;;;;;;;18.50;13.88;;;12.70;99.90;;;;;;5076024;28;20024;-77
2021/05/13 07:33:06;;;;;;;18.80;14.18;;;12.70;99.90;;;;;;5094393;28;20020;-78
2021/05/13 07:35:32;;;;;;;14.73;12.43;;;12.80;99.90;;;;;;5086605;28;20174;-78
2021/05/13 07:37:58;;;;;;;19.75;14.55;;;12.80;99.90;;;;;;5082267;28;20032;-79
2021/05/13 07:40:26;;;;;;;18.17;14.18;;;12.80;99.90;;;;;;5065998;28;20029;-79
2021/05/13 07:42:52;;;;;;;22.20;16.63;;;12.90;99.90;;;;;;5060547;28;20024;-78
2021/05/13 07:45:18;;;;;;;24.02;15.93;;;13.00;99.90;;;;;;5060766;28;20408;-77
2021/05/13 07:47:44;;;;;;;21.02;17.02;;;13.00;99.90;;;;;;5076965;28;20361;-77
2021/05/13 07:50:13;;;;;;;20.85;16.08;;;13.10;99.90;;;;;;5088893;28;20020;-76
2021/05/13 07:52:40;;;;;;;18.70;16.60;;;13.10;99.90;;;;;;5088786;28;20076;-76
2021/05/13 07:55:08;;;;;;;23.90;16.98;;;13.30;99.90;;;;;;5087100;28;20417;-76
2021/05/13 07:57:34;;;;;;;18.33;16.48;;;13.30;99.90;;;;;;5080477;28;20033;-77
2021/05/13 07:59:59;;;;;;;20.70;15.93;;;13.50;99.90;;;;;;5084698;28;20032;-74
2021/05/13 08:02:25;;;;;;;24.33;16.58;;;13.50;99.90;;;;;;5088828;28;20028;-77
2021/05/13 08:04:51;;;;;;;18.10;15.23;;;13.60;99.90;;;;;;5086311;28;20020;-76
2021/05/13 08:07:22;;;;;;;23.95;17.27;;;13.60;99.90;;;;;;5088641;28;20081;-77
2021/05/13 08:09:48;;;;;;;20.63;16.27;;;13.70;99.90;;;;;;5070020;28;20372;-77
2021/05/13 08:12:14;;;;;;;16.13;14.40;;;13.80;99.90;;;;;;5088034;28;20111;-76
2021/05/13 08:14:39;;;;;;;23.77;16.25;;;13.90;99.90;;;;;;5089428;28;20055;-76
2021/05/13 08:17:05;;;;;;;23.33;17.40;;;14.00;99.90;;;;;;5077279;28;20016;-75
2021/05/13 08:19:33;;;;;;;18.95;16.15;;;14.10;99.90;;;;;;5072579;28;20032;-76
2021/05/13 08:21:58;;;;;;;19.13;16.15;;;14.20;99.90;;;;;;5072256;28;20045;-75
2021/05/13 08:24:24;;;;;;;23.75;17.23;;;14.20;99.90;;;;;;5072773;28;20032;-77
2021/05/13 08:26:50;;;;;;;26.25;16.63;;;14.30;99.90;;;;;;5073010;28;20476;-75
2021/05/13 08:29:16;;;;;;;20.25;15.57;;;14.40;99.90;;;;;;5071924;28;20123;-78
2021/05/13 08:31:41;;;;;;;18.40;16.35;;;14.40;99.90;;;;;;5073192;28;20097;-78
2021/05/13 08:34:07;;;;;;;18.42;13.98;;;14.50;99.90;;;;;;5072948;28;20136;-76
2021/05/13 08:36:32;;;;;;;16.00;13.90;;;14.60;99.90;;;;;;5071847;28;20051;-75
2021/05/13 08:38:58;;;;;;;16.20;12.95;;;14.70;99.90;;;;;;5072783;28;20044;-76
2021/05/13 08:41:24;;;;;;;18.55;13.75;;;14.70;99.90;;;;;;5071907;28;20503;-75
2021/05/13 08:43:52;;;;;;;17.85;13.10;;;14.80;99.90;;;;;;5072605;28;20107;-76
2021/05/13 08:46:20;;;;;;;17.23;12.32;;;14.80;99.90;;;;;;5072030;28;20366;-76
2021/05/13 08:48:48;;;;;;;20.40;13.55;;;14.90;99.90;;;;;;5071782;28;20036;-78
2021/05/13 08:51:14;;;;;;;21.70;15.23;;;15.00;99.90;;;;;;5072789;28;20025;-78
2021/05/13 08:53:54;;;;;;;30.63;14.82;;;15.10;99.90;;;;;;5076649;28;20082;-79
2021/05/13 08:56:21;;;;;;;15.43;13.48;;;15.20;99.90;;;;;;5068615;28;20024;-79
2021/05/13 08:58:46;;;;;;;21.52;14.23;;;15.20;99.90;;;;;;5081214;28;20567;-79
2021/05/13 09:01:18;;;;;;;24.85;15.35;;;15.20;99.90;;;;;;5075441;28;20067;-79
2021/05/13 09:03:46;;;;;;;18.38;14.80;;;15.30;99.90;;;;;;5075363;28;20035;-79
2021/05/13 09:06:28;;;;;;;15.95;13.23;;;15.40;99.90;;;;;;5074965;28;20025;-78
2021/05/13 09:09:17;;;;;;;16.42;11.82;;;15.50;99.90;;;;;;5076054;28;20032;-81
2021/05/13 09:11:55;;;;;;;16.17;12.05;;;15.50;99.90;;;;;;5055819;28;20013;-83
2021/05/13 09:14:29;;;;;;;15.45;11.60;;;15.50;99.90;;;;;;5074157;28;20037;-82
2021/05/13 09:16:59;;;;;;;17.27;12.27;;;15.50;99.90;;;;;;5081931;28;20400;-83
2021/05/13 09:19:34;;;;;;;12.27;11.00;;;15.60;99.90;;;;;;5087557;28;20096;-81
2021/05/13 09:22:04;;;;;;;11.20;10.07;;;15.60;99.90;;;;;;5087151;28;20132;-80
2021/05/13 09:24:47;;;;;;;11.57;9.55;;;15.70;99.90;;;;;;5078190;28;20365;-81
2021/05/13 09:27:23;;;;;;;14.02;9.55;;;15.80;99.90;;;;;;5080403;28;20032;-80
2021/05/13 09:30:09;;;;;;;10.00;8.40;;;15.80;99.90;;;;;;5089105;28;20028;-82
2021/05/13 09:32:36;;;;;;;10.15;9.15;;;15.80;99.90;;;;;;5081792;28;20028;-80
2021/05/13 09:35:11;;;;;;;9.48;8.52;;;15.90;99.90;;;;;;5080931;28;20017;-81
2021/05/13 09:37:41;;;;;;;11.55;9.18;;;16.00;99.90;;;;;;5075471;28;20484;-82
2021/05/13 09:40:08;;;;;;;13.35;8.15;;;16.10;99.90;;;;;;5062135;28;20043;-82
2021/05/13 09:42:34;;;;;;;11.05;7.63;;;16.10;99.90;;;;;;5074646;28;20017;-83
2021/05/13 09:44:59;;;;;;;13.30;7.57;;;16.10;99.90;;;;;;5076925;28;20070;-82
2021/05/13 09:47:27;;;;;;;12.50;8.18;;;16.20;99.90;;;;;;5075506;28;20021;-81
2021/05/13 09:49:54;;;;;;;11.50;8.43;;;16.30;99.90;;;;;;5073131;28;20040;-81
2021/05/13 09:52:38;;;;;;;10.38;6.82;;;16.40;99.90;;;;;;5072687;28;20377;-81
2021/05/13 09:55:13;;;;;;;9.15;6.80;;;16.80;99.90;;;;;;5072368;28;20028;-81
2021/05/13 09:57:40;;;;;;;8.50;6.53;;;16.60;99.90;;;;;;5068134;28;20429;-81
2021/05/13 10:00:07;;;;;;;10.98;6.63;;;16.80;99.90;;;;;;5068439;28;20414;-82
2021/05/13 10:02:35;;;;;;;9.95;7.82;;;16.90;99.90;;;;;;5070666;28;20060;-82
2021/05/13 10:05:03;;;;;;;11.23;8.68;;;17.10;99.90;;;;;;5072509;28;20535;-81
2021/05/13 10:07:29;;;;;;;11.90;7.57;;;17.20;99.90;;;;;;5066674;28;20075;-82
2021/05/13 10:09:55;;;;;;;10.75;6.95;;;17.20;99.90;;;;;;5069610;28;20024;-81
2021/05/13 10:12:21;;;;;;;10.63;7.22;;;17.30;99.90;;;;;;5070360;28;20027;-83
2021/05/13 10:14:51;;;;;;;8.63;6.40;;;17.40;99.90;;;;;;5069453;28;20070;-82
2021/05/13 10:17:17;;;;;;;12.65;7.70;;;17.50;99.90;;;;;;5073474;28;20044;-83
2021/05/13 10:19:53;;;;;;;9.43;7.55;;;17.50;99.90;;;;;;5074816;28;20034;-82
2021/05/13 10:22:19;;;;;;;10.80;7.07;;;17.60;99.90;;;;;;5070386;28;20040;-81
2021/05/13 10:24:46;;;;;;;10.18;6.57;;;17.80;99.90;;;;;;5079577;28;20028;-81
2021/05/13 10:27:16;;;;;;;9.60;7.22;;;17.70;99.90;;;;;;5078102;28;20335;-82
2021/05/13 10:29:41;;;;;;;7.28;6.45;;;17.70;99.90;;;;;;5081221;28;20039;-81
2021/05/13 10:32:22;;;;;;;9.38;6.78;;;17.70;99.90;;;;;;5077403;28;20025;-81
2021/05/13 10:34:58;;;;;;;12.93;6.57;;;17.80;99.90;;;;;;5062372;28;20029;-80
2021/05/13 10:37:34;;;;;;;9.25;6.28;;;17.90;99.90;;;;;;5072120;28;20078;-80
2021/05/13 10:40:11;;;;;;;8.93;5.20;;;18.10;99.90;;;;;;5072991;28;20040;-80
2021/05/13 10:42:38;;;;;;;9.05;5.55;;;18.20;99.90;;;;;;5064792;28;20418;-81
2021/05/13 10:45:25;;;;;;;9.95;6.57;;;18.30;99.90;;;;;;5091206;28;20475;-81
2021/05/13 10:48:26;;;;;;;8.35;6.47;;;18.50;97.90;;;;;;5091605;28;20197;-80
2021/05/13 10:51:07;;;;;;;11.43;6.68;;;18.60;96.60;;;;;;5059033;28;20028;-80
2021/05/13 10:53:35;;;;;;;11.52;6.68;;;18.30;93.70;;;;;;5090321;28;20084;-81
2021/05/13 10:56:22;;;;;;;6.50;4.95;;;18.20;94.10;;;;;;5091629;28;20020;-80
2021/05/13 10:58:59;;;;;;;11.25;6.88;;;18.30;95.20;;;;;;5092729;28;20115;-81
2021/05/13 11:01:46;;;;;;;11.38;6.15;;;18.50;95.30;;;;;;5089518;28;20017;-81
2021/05/13 11:04:24;;;;;;;9.57;6.22;;;18.70;94.80;;;;;;5082375;28;20024;-80
2021/05/13 11:06:55;;;;;;;10.95;6.43;;;18.80;94.30;;;;;;5070838;28;20036;-81
2021/05/13 11:09:39;;;;;;;7.97;5.20;;;19.00;94.80;;;;;;5079394;28;20027;-81
2021/05/13 11:12:21;;;;;;;9.95;5.38;;;19.20;94.10;;;;;;5084220;28;20047;-80
2021/05/13 11:20:30;;;;;;;11.27;6.85;;;19.30;91.40;;;;;;5074798;28;20029;-81
2021/05/13 11:23:16;;;;;;;11.30;7.63;;;19.30;89.60;;;;;;5075475;28;20438;-81
2021/05/13 11:25:49;;;;;;;9.23;6.32;;;19.10;88.80;;;;;;5075651;28;20035;-81
2021/05/13 11:28:33;;;;;;;7.15;6.55;;;19.00;90.70;;;;;;5061560;28;20034;-79
2021/05/13 11:31:04;;;;;;;8.57;6.13;;;19.10;91.30;;;;;;5075886;28;20028;-80
2021/05/13 11:33:48;;;;;;;12.48;6.65;;;19.30;91.60;;;;;;5076128;28;20021;-81
2021/05/13 11:36:33;;;;;;;7.15;6.00;;;19.50;91.10;;;;;;5074689;28;20025;-81
2021/05/13 11:39:06;;;;;;;11.15;6.55;;;19.80;90.30;;;;;;5074088;28;20046;-80
2021/05/13 11:41:32;;;;;;;9.13;5.72;;;20.20;88.90;;;;;;5079836;28;20028;-80
2021/05/13 11:43:58;;;;;;;7.43;6.68;;;20.40;86.90;;;;;;5065753;28;20131;-79
2021/05/13 11:46:25;;;;;;;8.68;6.65;;;20.70;86.60;;;;;;5074587;28;20108;-78
2021/05/13 11:48:51;;;;;;;9.57;7.00;;;20.70;84.00;;;;;;5076161;28;20081;-79
2021/05/13 11:51:20;;;;;;;14.07;8.57;;;20.60;83.00;;;;;;5073450;28;20025;-79
2021/05/13 11:53:46;;;;;;;8.23;7.43;;;20.40;80.50;;;;;;5078362;28;20052;-80
2021/05/13 11:56:14;;;;;;;10.45;6.78;;;20.00;81.40;;;;;;5076407;28;20116;-79
2021/05/13 11:58:45;;;;;;;7.65;6.82;;;19.80;82.20;;;;;;5077907;28;20139;-79
2021/05/13 12:01:20;;;;;;;9.77;7.00;;;19.80;83.20;;;;;;5074253;28;20032;-79
2021/05/13 12:03:47;;;;;;;6.75;6.15;;;19.50;82.30;;;;;;5076737;28;20441;-78
2021/05/13 12:06:13;;;;;;;9.10;6.85;;;19.50;83.30;;;;;;5074246;28;20024;-77
2021/05/13 12:08:38;;;;;;;8.75;5.50;;;19.40;83.20;;;;;;5077535;28;20456;-79
2021/05/13 12:11:20;;;;;;;10.80;6.30;;;19.50;85.20;;;;;;5075063;28;20021;-79
2021/05/13 12:13:47;;;;;;;9.85;6.05;;;19.60;85.10;;;;;;5077497;28;20031;-79
2021/05/13 12:16:16;;;;;;;12.60;7.25;;;19.70;84.60;;;;;;5072540;28;20492;-78
2021/05/13 12:18:44;;;;;;;9.55;6.43;;;19.70;81.40;;;;;;5072992;28;20043;-78
2021/05/13 12:21:13;;;;;;;7.18;6.43;;;19.70;81.80;;;;;;5071912;28;20082;-78
2021/05/13 12:23:40;;;;;;;10.13;6.85;;;19.70;81.50;;;;;;5072823;28;20028;-77
2021/05/13 12:26:07;;;;;;;10.43;5.85;;;19.70;79.90;;;;;;5072721;28;20127;-77
2021/05/13 12:28:33;;;;;;;8.88;6.50;;;19.50;81.30;;;;;;5071856;28;20503;-79
2021/05/13 12:30:58;;;;;;;10.88;7.03;;;19.70;83.00;;;;;;5072744;28;20037;-78
2021/05/13 12:33:27;;;;;;;10.05;7.35;;;19.80;81.10;;;;;;5072577;28;20491;-78
2021/05/13 12:35:53;;;;;;;7.35;5.43;;;19.80;80.10;;;;;;5072149;28;20024;-78
2021/05/13 12:38:24;;;;;;;5.53;4.38;;;19.90;79.60;;;;;;5072045;28;20100;-78
2021/05/13 12:41:05;;;;;;;7.57;6.32;;;20.10;79.10;;;;;;5071779;28;20523;-77
2021/05/13 12:43:30;;;;;;;7.60;5.07;;;20.10;74.70;;;;;;5072172;28;20465;-78
2021/05/13 12:45:56;;;;;;;8.32;5.10;;;20.10;74.30;;;;;;5072604;28;20078;-78
2021/05/13 12:48:27;;;;;;;5.60;4.57;;;20.10;75.60;;;;;;5071211;28;20332;-78
2021/05/13 12:51:04;;;;;;;6.90;4.93;;;20.00;74.90;;;;;;5072358;28;20020;-78
2021/05/13 12:53:31;;;;;;;6.15;5.65;;;19.90;75.50;;;;;;5072008;28;20059;-78
2021/05/13 12:55:57;;;;;;;8.85;5.00;;;19.90;77.20;;;;;;5071934;28;20017;-78
2021/05/13 12:58:27;;;;;;;9.27;4.75;;;20.00;78.40;;;;;;5072265;28;20029;-79